Moreland, Georgia
Current Conditions -  °F | °C
As of 9:15 PM on Saturday 25 Oct 2014 (Local Time) from KCCO Reporting Station
Clear Clear  
Wind Chill: 66°   Ceiling: Unl
Heat Index: 66°   Visibility: 10mi
Dew Point: 52°   Wind: 5mph
Humidity: 61%   Direction: 310°NW
Pressure: 30.05"   Gusts: NA
Location:  33.29°N, 84.77°W
Report Text: KCCO 260115Z AUTO 31004KT 10SM CLR 19/11 A3005 RMK AO2 T01870110
Loading
Personal Weather Stations






























Interactive Weather Map
Tropical Storm Tracking
New forecast layout! Learn more

10-Day Weather Forecast

Advertisements
Track Severe Weather on mobile